sensor_id;sensor_type;location;lat;lon;timestamp;pressure;altitude;pressure_sealevel;temperature;humidity
26697;BME280;14312;52.614;13.496;2022-11-03T00:01:02;101501.19;;;9.28;56.52
26697;BME280;14312;52.614;13.496;2022-11-03T00:03:47;101498.94;;;9.25;56.75
26697;BME280;14312;52.614;13.496;2022-11-03T00:06:34;101497.72;;;9.21;56.79
26697;BME280;14312;52.614;13.496;2022-11-03T00:09:21;101496.50;;;9.17;56.92
26697;BME280;14312;52.614;13.496;2022-11-03T00:12:07;101496.94;;;9.14;56.64
26697;BME280;14312;52.614;13.496;2022-11-03T00:14:53;101498.34;;;9.10;56.82
26697;BME280;14312;52.614;13.496;2022-11-03T00:17:38;101496.13;;;9.07;56.87
26697;BME280;14312;52.614;13.496;2022-11-03T00:20:24;101491.22;;;9.03;57.04
26697;BME280;14312;52.614;13.496;2022-11-03T00:23:10;101492.25;;;9.02;57.14
26697;BME280;14312;52.614;13.496;2022-11-03T00:26:12;101487.56;;;8.98;57.71
26697;BME280;14312;52.614;13.496;2022-11-03T00:29:00;101488.78;;;8.95;57.14
26697;BME280;14312;52.614;13.496;2022-11-03T00:31:46;101478.59;;;8.92;57.04
26697;BME280;14312;52.614;13.496;2022-11-03T00:34:32;101477.16;;;8.90;57.03
26697;BME280;14312;52.614;13.496;2022-11-03T00:37:17;101480.44;;;8.85;57.38
26697;BME280;14312;52.614;13.496;2022-11-03T00:40:03;101474.50;;;8.83;57.30
26697;BME280;14312;52.614;13.496;2022-11-03T00:42:49;101479.19;;;8.81;57.40
26697;BME280;14312;52.614;13.496;2022-11-03T00:45:35;101473.69;;;8.76;57.27
26697;BME280;14312;52.614;13.496;2022-11-03T00:48:21;101477.38;;;8.75;57.46
26697;BME280;14312;52.614;13.496;2022-11-03T00:51:24;101471.06;;;8.70;57.37
26697;BME280;14312;52.614;13.496;2022-11-03T00:54:10;101468.00;;;8.66;57.29
26697;BME280;14312;52.614;13.496;2022-11-03T00:56:56;101468.41;;;8.63;57.48
26697;BME280;14312;52.614;13.496;2022-11-03T00:59:42;101461.88;;;8.59;57.30
26697;BME280;14312;52.614;13.496;2022-11-03T01:02:27;101467.59;;;8.56;57.80
26697;BME280;14312;52.614;13.496;2022-11-03T01:05:13;101457.38;;;8.53;57.46
26697;BME280;14312;52.614;13.496;2022-11-03T01:08:18;101452.88;;;8.47;57.67
26697;BME280;14312;52.614;13.496;2022-11-03T01:11:13;101446.38;;;8.43;57.59
26697;BME280;14312;52.614;13.496;2022-11-03T01:14:18;101446.75;;;8.40;57.63
26697;BME280;14312;52.614;13.496;2022-11-03T01:17:12;101445.56;;;8.36;57.55
26697;BME280;14312;52.614;13.496;2022-11-03T01:19:57;101442.72;;;8.31;57.68
26697;BME280;14312;52.614;13.496;2022-11-03T01:22:43;101455.31;;;8.29;57.85
26697;BME280;14312;52.614;13.496;2022-11-03T01:25:29;101453.88;;;8.26;57.93
26697;BME280;14312;52.614;13.496;2022-11-03T01:28:14;101454.31;;;8.23;57.96
26697;BME280;14312;52.614;13.496;2022-11-03T01:31:05;101459.81;;;8.21;58.10
26697;BME280;14312;52.614;13.496;2022-11-03T01:33:54;101449.00;;;8.16;57.73
26697;BME280;14312;52.614;13.496;2022-11-03T01:36:41;101453.69;;;8.14;57.61
26697;BME280;14312;52.614;13.496;2022-11-03T01:39:27;101450.84;;;8.09;57.96
26697;BME280;14312;52.614;13.496;2022-11-03T01:42:13;101447.56;;;8.07;57.82
26697;BME280;14312;52.614;13.496;2022-11-03T01:44:59;101450.84;;;8.03;58.30
26697;BME280;14312;52.614;13.496;2022-11-03T01:47:45;101445.09;;;7.99;58.15
26697;BME280;14312;52.614;13.496;2022-11-03T01:50:31;101440.19;;;7.96;57.79
26697;BME280;14312;52.614;13.496;2022-11-03T01:53:17;101446.72;;;7.94;58.37
26697;BME280;14312;52.614;13.496;2022-11-03T01:56:04;101437.34;;;7.91;58.19
26697;BME280;14312;52.614;13.496;2022-11-03T01:58:52;101438.56;;;7.89;58.38
26697;BME280;14312;52.614;13.496;2022-11-03T02:01:39;101441.41;;;7.87;58.35
26697;BME280;14312;52.614;13.496;2022-11-03T02:04:29;101441.81;;;7.84;58.68
26697;BME280;14312;52.614;13.496;2022-11-03T02:07:27;101435.88;;;7.82;58.77
26697;BME280;14312;52.614;13.496;2022-11-03T02:10:15;101428.34;;;7.79;58.44
26697;BME280;14312;52.614;13.496;2022-11-03T02:13:06;101425.06;;;7.77;58.80
26697;BME280;14312;52.614;13.496;2022-11-03T02:15:57;101412.22;;;7.74;58.51
26697;BME280;14312;52.614;13.496;2022-11-03T02:18:44;101411.59;;;7.72;58.38
26697;BME280;14312;52.614;13.496;2022-11-03T02:21:44;101415.66;;;7.68;59.21
26697;BME280;14312;52.614;13.496;2022-11-03T02:27:27;101405.66;;;7.63;58.36
26697;BME280;14312;52.614;13.496;2022-11-03T02:30:18;101401.78;;;7.59;58.56
26697;BME280;14312;52.614;13.496;2022-11-03T02:36:29;101391.38;;;7.51;58.94
26697;BME280;14312;52.614;13.496;2022-11-03T02:39:26;101391.16;;;7.53;59.46
26697;BME280;14312;52.614;13.496;2022-11-03T02:42:14;101387.91;;;7.51;58.87
26697;BME280;14312;52.614;13.496;2022-11-03T02:45:05;101385.66;;;7.54;59.13
26697;BME280;14312;52.614;13.496;2022-11-03T02:47:54;101389.94;;;7.55;59.11
26697;BME280;14312;52.614;13.496;2022-11-03T02:50:41;101394.41;;;7.55;59.29
26697;BME280;14312;52.614;13.496;2022-11-03T02:53:28;101391.78;;;7.55;59.46
26697;BME280;14312;52.614;13.496;2022-11-03T02:56:20;101386.28;;;7.56;59.67
26697;BME280;14312;52.614;13.496;2022-11-03T02:59:11;101394.03;;;7.58;59.66
26697;BME280;14312;52.614;13.496;2022-11-03T03:02:08;101385.06;;;7.59;59.76
26697;BME280;14312;52.614;13.496;2022-11-03T03:04:56;101379.75;;;7.59;59.33
26697;BME280;14312;52.614;13.496;2022-11-03T03:07:48;101382.00;;;7.62;59.60
26697;BME280;14312;52.614;13.496;2022-11-03T03:10:38;101387.91;;;7.64;60.00
26697;BME280;14312;52.614;13.496;2022-11-03T03:13:25;101384.25;;;7.65;59.81
26697;BME280;14312;52.614;13.496;2022-11-03T03:16:15;101383.22;;;7.66;60.07
26697;BME280;14312;52.614;13.496;2022-11-03T03:19:21;101376.09;;;7.73;60.65
26697;BME280;14312;52.614;13.496;2022-11-03T03:22:19;101385.69;;;7.74;60.41
26697;BME280;14312;52.614;13.496;2022-11-03T03:25:12;101380.59;;;7.79;59.98
26697;BME280;14312;52.614;13.496;2022-11-03T03:28:11;101373.25;;;7.81;60.75
26697;BME280;14312;52.614;13.496;2022-11-03T03:31:03;101368.34;;;7.84;60.19
26697;BME280;14312;52.614;13.496;2022-11-03T03:33:52;101379.38;;;7.88;60.42
26697;BME280;14312;52.614;13.496;2022-11-03T03:36:39;101374.47;;;7.92;60.27
26697;BME280;14312;52.614;13.496;2022-11-03T03:39:33;101377.53;;;7.95;60.32
26697;BME280;14312;52.614;13.496;2022-11-03T03:42:21;101374.47;;;7.98;60.53
26697;BME280;14312;52.614;13.496;2022-11-03T03:45:09;101374.88;;;8.02;60.69
26697;BME280;14312;52.614;13.496;2022-11-03T03:47:57;101369.34;;;8.03;60.75
26697;BME280;14312;52.614;13.496;2022-11-03T03:50:43;101375.28;;;8.05;60.57
26697;BME280;14312;52.614;13.496;2022-11-03T03:53:31;101358.97;;;8.08;60.58
26697;BME280;14312;52.614;13.496;2022-11-03T03:56:26;101370.78;;;8.12;61.08
26697;BME280;14312;52.614;13.496;2022-11-03T03:59:17;101366.09;;;8.14;60.51
26697;BME280;14312;52.614;13.496;2022-11-03T04:02:04;101359.34;;;8.18;60.17
26697;BME280;14312;52.614;13.496;2022-11-03T04:04:50;101364.66;;;8.18;60.33
26697;BME280;14312;52.614;13.496;2022-11-03T04:07:36;101359.34;;;8.18;60.35
26697;BME280;14312;52.614;13.496;2022-11-03T04:10:34;101359.75;;;8.22;60.21
26697;BME280;14312;52.614;13.496;2022-11-03T04:13:20;101355.28;;;8.22;60.21
26697;BME280;14312;52.614;13.496;2022-11-03T04:16:25;101359.75;;;8.22;60.11
26697;BME280;14312;52.614;13.496;2022-11-03T04:19:29;101358.94;;;8.21;60.50
26697;BME280;14312;52.614;13.496;2022-11-03T04:22:34;101358.94;;;8.21;60.18
26697;BME280;14312;52.614;13.496;2022-11-03T04:25:20;101353.63;;;8.21;60.22
26697;BME280;14312;52.614;13.496;2022-11-03T04:28:13;101358.94;;;8.21;60.56
26697;BME280;14312;52.614;13.496;2022-11-03T04:30:59;101349.53;;;8.19;60.46
26697;BME280;14312;52.614;13.496;2022-11-03T04:33:46;101354.03;;;8.18;60.06
26697;BME280;14312;52.614;13.496;2022-11-03T04:36:32;101343.84;;;8.15;59.84
26697;BME280;14312;52.614;13.496;2022-11-03T04:39:19;101344.25;;;8.12;60.09
26697;BME280;14312;52.614;13.496;2022-11-03T04:42:14;101342.03;;;8.09;60.44
26697;BME280;14312;52.614;13.496;2022-11-03T04:45:13;101332.81;;;8.05;60.41
26697;BME280;14312;52.614;13.496;2022-11-03T04:48:09;101331.81;;;8.00;60.18
26697;BME280;14312;52.614;13.496;2022-11-03T04:51:10;101318.53;;;7.93;60.52
26697;BME280;14312;52.614;13.496;2022-11-03T04:54:02;101322.63;;;7.89;59.90
26697;BME280;14312;52.614;13.496;2022-11-03T04:56:49;101320.78;;;7.83;59.70
26697;BME280;14312;52.614;13.496;2022-11-03T04:59:35;101309.97;;;7.78;59.82
26697;BME280;14312;52.614;13.496;2022-11-03T05:02:21;101301.81;;;7.73;60.08
26697;BME280;14312;52.614;13.496;2022-11-03T05:05:15;101303.44;;;7.67;60.00
26697;BME280;14312;52.614;13.496;2022-11-03T05:08:02;101301.41;;;7.63;60.08
26697;BME280;14312;52.614;13.496;2022-11-03T05:10:48;101300.19;;;7.59;60.23
26697;BME280;14312;52.614;13.496;2022-11-03T05:13:37;101302.41;;;7.55;59.89
26697;BME280;14312;52.614;13.496;2022-11-03T05:16:23;101293.66;;;7.48;60.16
26697;BME280;14312;52.614;13.496;2022-11-03T05:19:17;101289.59;;;7.45;60.39
26697;BME280;14312;52.614;13.496;2022-11-03T05:22:13;101286.50;;;7.42;60.52
26697;BME280;14312;52.614;13.496;2022-11-03T05:25:05;101285.88;;;7.40;60.17
26697;BME280;14312;52.614;13.496;2022-11-03T05:28:15;101273.25;;;7.35;60.48
26697;BME280;14312;52.614;13.496;2022-11-03T05:34:34;101264.69;;;7.33;61.31
26697;BME280;14312;52.614;13.496;2022-11-03T05:37:30;101258.16;;;7.29;60.42
26697;BME280;14312;52.614;13.496;2022-11-03T05:40:21;101254.88;;;7.27;60.77
26697;BME280;14312;52.614;13.496;2022-11-03T05:43:09;101256.53;;;7.28;60.81
26697;BME280;14312;52.614;13.496;2022-11-03T05:46:00;101251.63;;;7.25;60.76
26697;BME280;14312;52.614;13.496;2022-11-03T05:48:47;101256.91;;;7.25;60.64
26697;BME280;14312;52.614;13.496;2022-11-03T05:51:38;101258.16;;;7.23;60.79
26697;BME280;14312;52.614;13.496;2022-11-03T05:54:31;101260.00;;;7.22;60.95
26697;BME280;14312;52.614;13.496;2022-11-03T05:57:19;101263.03;;;7.19;60.54
26697;BME280;14312;52.614;13.496;2022-11-03T06:00:18;101263.03;;;7.19;60.88
26697;BME280;14312;52.614;13.496;2022-11-03T06:03:09;101260.38;;;7.19;60.79
26697;BME280;14312;52.614;13.496;2022-11-03T06:06:00;101263.03;;;7.19;60.84
26697;BME280;14312;52.614;13.496;2022-11-03T06:08:46;101256.50;;;7.15;60.67
26697;BME280;14312;52.614;13.496;2022-11-03T06:11:35;101263.44;;;7.16;61.00
26697;BME280;14312;52.614;13.496;2022-11-03T06:14:25;101277.72;;;7.15;61.02
26697;BME280;14312;52.614;13.496;2022-11-03T06:17:21;101273.44;;;7.14;61.36
26697;BME280;14312;52.614;13.496;2022-11-03T06:20:15;101279.34;;;7.16;61.58
26697;BME280;14312;52.614;13.496;2022-11-03T06:23:08;101281.38;;;7.14;61.04
26697;BME280;14312;52.614;13.496;2022-11-03T06:25:56;101283.03;;;7.15;60.76
26697;BME280;14312;52.614;13.496;2022-11-03T06:28:42;101293.63;;;7.15;61.14
26697;BME280;14312;52.614;13.496;2022-11-03T06:31:31;101290.16;;;7.15;60.85
26697;BME280;14312;52.614;13.496;2022-11-03T06:34:32;101298.91;;;7.15;61.28
26697;BME280;14312;52.614;13.496;2022-11-03T06:37:22;101293.63;;;7.15;61.38
26697;BME280;14312;52.614;13.496;2022-11-03T06:42:55;101277.72;;;7.15;61.11
26697;BME280;14312;52.614;13.496;2022-11-03T06:45:48;101274.44;;;7.20;61.21
26697;BME280;14312;52.614;13.496;2022-11-03T06:48:35;101278.94;;;7.19;61.08
26697;BME280;14312;52.614;13.496;2022-11-03T06:51:22;101262.66;;;7.22;61.10
26697;BME280;14312;52.614;13.496;2022-11-03T06:54:10;101253.69;;;7.23;61.43
26697;BME280;14312;52.614;13.496;2022-11-03T06:56:56;101250.00;;;7.24;61.22
26697;BME280;14312;52.614;13.496;2022-11-03T06:59:42;101244.28;;;7.27;61.34
26697;BME280;14312;52.614;13.496;2022-11-03T07:05:28;101249.19;;;7.30;61.33
26697;BME280;14312;52.614;13.496;2022-11-03T07:08:27;101244.09;;;7.35;61.93
26697;BME280;14312;52.614;13.496;2022-11-03T07:14:10;101239.81;;;7.47;62.31
26697;BME280;14312;52.614;13.496;2022-11-03T07:17:03;101244.69;;;7.57;61.94
26697;BME280;14312;52.614;13.496;2022-11-03T07:19:50;101240.59;;;7.68;61.99
26697;BME280;14312;52.614;13.496;2022-11-03T07:22:36;101241.00;;;7.78;62.16
26697;BME280;14312;52.614;13.496;2022-11-03T07:25:25;101247.94;;;7.92;62.52
26697;BME280;14312;52.614;13.496;2022-11-03T07:28:12;101246.88;;;8.06;62.20
26697;BME280;14312;52.614;13.496;2022-11-03T07:31:00;101236.81;;;8.21;62.47
26697;BME280;14312;52.614;13.496;2022-11-03T07:33:57;101240.06;;;8.37;62.55
26697;BME280;14312;52.614;13.496;2022-11-03T07:36:43;101240.41;;;8.53;62.42
26697;BME280;14312;52.614;13.496;2022-11-03T07:39:34;101249.72;;;8.69;62.64
26697;BME280;14312;52.614;13.496;2022-11-03T07:42:23;101249.25;;;8.85;62.41
26697;BME280;14312;52.614;13.496;2022-11-03T07:48:24;101224.88;;;9.20;62.42
26697;BME280;14312;52.614;13.496;2022-11-03T07:51:18;101229.47;;;9.37;62.32
26697;BME280;14312;52.614;13.496;2022-11-03T07:54:18;101227.03;;;9.54;62.63
26697;BME280;14312;52.614;13.496;2022-11-03T08:00:14;101213.66;;;9.86;63.03
26697;BME280;14312;52.614;13.496;2022-11-03T08:03:21;101221.03;;;10.02;63.23
26697;BME280;14312;52.614;13.496;2022-11-03T08:06:09;101215.34;;;10.16;63.78
26697;BME280;14312;52.614;13.496;2022-11-03T08:08:55;101206.13;;;10.37;63.82
26697;BME280;14312;52.614;13.496;2022-11-03T08:11:41;101198.91;;;10.56;63.83
26697;BME280;14312;52.614;13.496;2022-11-03T08:14:27;101189.59;;;10.77;63.58
26697;BME280;14312;52.614;13.496;2022-11-03T08:17:12;101192.19;;;10.95;63.13
26697;BME280;14312;52.614;13.496;2022-11-03T08:20:03;101190.59;;;11.17;63.28
26697;BME280;14312;52.614;13.496;2022-11-03T08:22:49;101182.03;;;11.38;62.90
26697;BME280;14312;52.614;13.496;2022-11-03T08:25:35;101177.97;;;11.59;62.71
26697;BME280;14312;52.614;13.496;2022-11-03T08:28:21;101176.03;;;11.78;62.24
26697;BME280;14312;52.614;13.496;2022-11-03T08:31:07;101180.63;;;11.94;62.14
26697;BME280;14312;52.614;13.496;2022-11-03T08:33:53;101174.19;;;12.19;62.11
26697;BME280;14312;52.614;13.496;2022-11-03T08:36:38;101178.44;;;12.43;61.67
26697;BME280;14312;52.614;13.496;2022-11-03T08:39:24;101173.78;;;12.67;61.00
26697;BME280;14312;52.614;13.496;2022-11-03T08:42:09;101168.63;;;12.93;60.46
26697;BME280;14312;52.614;13.496;2022-11-03T08:44:55;101164.19;;;13.16;60.82
26697;BME280;14312;52.614;13.496;2022-11-03T08:47:43;101164.09;;;13.44;60.00
26697;BME280;14312;52.614;13.496;2022-11-03T08:50:28;101152.69;;;13.70;59.29
26697;BME280;14312;52.614;13.496;2022-11-03T08:53:15;101144.97;;;13.96;58.26
26697;BME280;14312;52.614;13.496;2022-11-03T08:56:01;101144.72;;;14.19;56.99
26697;BME280;14312;52.614;13.496;2022-11-03T08:58:47;101135.75;;;14.35;55.79
26697;BME280;14312;52.614;13.496;2022-11-03T09:01:33;101124.63;;;14.43;55.11
26697;BME280;14312;52.614;13.496;2022-11-03T09:04:18;101124.41;;;14.50;54.92
26697;BME280;14312;52.614;13.496;2022-11-03T09:07:06;101121.00;;;14.55;54.64
26697;BME280;14312;52.614;13.496;2022-11-03T09:09:53;101116.97;;;14.57;54.77
26697;BME280;14312;52.614;13.496;2022-11-03T09:12:39;101115.09;;;14.58;54.33
26697;BME280;14312;52.614;13.496;2022-11-03T09:15:24;101112.16;;;14.59;54.21
26697;BME280;14312;52.614;13.496;2022-11-03T09:18:10;101108.13;;;14.57;54.83
26697;BME280;14312;52.614;13.496;2022-11-03T09:20:56;101101.16;;;14.56;54.47
26697;BME280;14312;52.614;13.496;2022-11-03T09:23:41;101097.38;;;14.57;54.68
26697;BME280;14312;52.614;13.496;2022-11-03T09:26:27;101100.66;;;14.64;55.17
26697;BME280;14312;52.614;13.496;2022-11-03T09:29:16;101086.84;;;14.77;54.48
26697;BME280;14312;52.614;13.496;2022-11-03T09:32:01;101092.88;;;14.94;53.87
26697;BME280;14312;52.614;13.496;2022-11-03T09:34:52;101079.00;;;15.07;53.16
26697;BME280;14312;52.614;13.496;2022-11-03T09:37:38;101078.03;;;15.18;53.17
26697;BME280;14312;52.614;13.496;2022-11-03T09:40:24;101083.44;;;15.28;52.77
26697;BME280;14312;52.614;13.496;2022-11-03T09:43:10;101075.94;;;15.31;52.92
26697;BME280;14312;52.614;13.496;2022-11-03T09:45:56;101063.56;;;15.29;52.66
26697;BME280;14312;52.614;13.496;2022-11-03T09:48:42;101066.78;;;15.26;52.94
26697;BME280;14312;52.614;13.496;2022-11-03T09:51:31;101061.38;;;15.21;53.00
26697;BME280;14312;52.614;13.496;2022-11-03T09:54:19;101051.97;;;15.19;52.36
26697;BME280;14312;52.614;13.496;2022-11-03T09:57:10;101054.91;;;15.17;52.65
26697;BME280;14312;52.614;13.496;2022-11-03T09:59:56;101048.19;;;15.15;52.95
26697;BME280;14312;52.614;13.496;2022-11-03T10:02:42;101049.00;;;15.20;52.30
26697;BME280;14312;52.614;13.496;2022-11-03T10:05:28;101040.69;;;15.22;52.40
26697;BME280;14312;52.614;13.496;2022-11-03T10:08:23;101040.19;;;15.25;52.20
26697;BME280;14312;52.614;13.496;2022-11-03T10:11:12;101041.00;;;15.25;52.30
26697;BME280;14312;52.614;13.496;2022-11-03T10:13:59;101030.78;;;15.27;52.69
26697;BME280;14312;52.614;13.496;2022-11-03T10:16:51;101031.91;;;15.37;52.97
26697;BME280;14312;52.614;13.496;2022-11-03T10:19:37;101017.47;;;15.48;51.57
26697;BME280;14312;52.614;13.496;2022-11-03T10:22:23;101004.09;;;15.53;51.06
26697;BME280;14312;52.614;13.496;2022-11-03T10:25:47;101005.16;;;15.57;51.80
26697;BME280;14312;52.614;13.496;2022-11-03T10:28:32;101007.91;;;15.62;50.99
26697;BME280;14312;52.614;13.496;2022-11-03T10:31:19;101007.34;;;15.65;51.13
26697;BME280;14312;52.614;13.496;2022-11-03T10:34:34;101004.16;;;15.68;50.81
26697;BME280;14312;52.614;13.496;2022-11-03T10:37:24;100992.34;;;15.69;50.99
26697;BME280;14312;52.614;13.496;2022-11-03T10:40:34;100991.78;;;15.72;51.26
26697;BME280;14312;52.614;13.496;2022-11-03T10:43:21;100984.28;;;15.74;51.32
26697;BME280;14312;52.614;13.496;2022-11-03T10:46:17;100971.66;;;15.80;51.92
26697;BME280;14312;52.614;13.496;2022-11-03T10:49:14;100969.81;;;15.90;51.29
26697;BME280;14312;52.614;13.496;2022-11-03T10:52:17;100968.47;;;15.98;51.29
26697;BME280;14312;52.614;13.496;2022-11-03T10:55:04;100969.81;;;16.05;50.33
26697;BME280;14312;52.614;13.496;2022-11-03T10:57:53;100957.97;;;16.06;50.42
26697;BME280;14312;52.614;13.496;2022-11-03T11:00:42;100952.06;;;16.10;50.94
26697;BME280;14312;52.614;13.496;2022-11-03T11:03:28;100950.44;;;16.14;51.18
26697;BME280;14312;52.614;13.496;2022-11-03T11:06:20;100944.78;;;16.20;51.00
26697;BME280;14312;52.614;13.496;2022-11-03T11:09:13;100937.56;;;16.26;51.01
26697;BME280;14312;52.614;13.496;2022-11-03T11:12:17;100939.72;;;16.34;50.38
26697;BME280;14312;52.614;13.496;2022-11-03T11:24:02;100917.91;;;16.30;49.45
26697;BME280;14312;52.614;13.496;2022-11-03T11:26:52;100906.59;;;16.28;49.64
26697;BME280;14312;52.614;13.496;2022-11-03T11:29:37;100905.28;;;16.26;49.45
26697;BME280;14312;52.614;13.496;2022-11-03T11:42:32;100882.69;;;16.22;49.51
26697;BME280;14312;52.614;13.496;2022-11-03T11:45:12;100883.78;;;16.16;49.63
26697;BME280;14312;52.614;13.496;2022-11-03T11:47:57;100876.78;;;16.15;49.46
26697;BME280;14312;52.614;13.496;2022-11-03T11:50:43;100870.34;;;16.11;49.50
26697;BME280;14312;52.614;13.496;2022-11-03T11:53:36;100870.88;;;16.08;49.76
26697;BME280;14312;52.614;13.496;2022-11-03T11:56:24;100859.06;;;16.03;50.15
26697;BME280;14312;52.614;13.496;2022-11-03T11:59:36;100855.28;;;16.04;50.40
26697;BME280;14312;52.614;13.496;2022-11-03T12:02:23;100842.66;;;16.00;50.90
26697;BME280;14312;52.614;13.496;2022-11-03T12:05:20;100843.47;;;16.00;50.74
26697;BME280;14312;52.614;13.496;2022-11-03T12:08:17;100832.69;;;16.00;50.82
26697;BME280;14312;52.614;13.496;2022-11-03T12:11:04;100834.31;;;16.01;50.30
26697;BME280;14312;52.614;13.496;2022-11-03T12:13:50;100829.50;;;15.98;50.32
26697;BME280;14312;52.614;13.496;2022-11-03T12:16:38;100831.91;;;15.95;50.87
26697;BME280;14312;52.614;13.496;2022-11-03T12:19:32;100832.72;;;15.95;51.02
26697;BME280;14312;52.614;13.496;2022-11-03T12:25:33;100821.41;;;15.93;51.51
26697;BME280;14312;52.614;13.496;2022-11-03T12:28:34;100814.44;;;15.92;51.64
26697;BME280;14312;52.614;13.496;2022-11-03T12:31:20;100817.13;;;15.92;51.93
26697;BME280;14312;52.614;13.496;2022-11-03T12:34:06;100806.09;;;15.94;51.92
26697;BME280;14312;52.614;13.496;2022-11-03T12:37:17;100818.75;;;15.98;51.85
26697;BME280;14312;52.614;13.496;2022-11-03T12:40:04;100810.94;;;15.97;52.15
26697;BME280;14312;52.614;13.496;2022-11-03T12:42:50;100810.16;;;15.96;51.92
26697;BME280;14312;52.614;13.496;2022-11-03T12:45:36;100802.63;;;15.98;51.98
26697;BME280;14312;52.614;13.496;2022-11-03T12:48:22;100801.00;;;15.97;51.86
26697;BME280;14312;52.614;13.496;2022-11-03T12:51:07;100802.63;;;15.98;51.91
26697;BME280;14312;52.614;13.496;2022-11-03T12:53:59;100801.00;;;15.97;52.05
26697;BME280;14312;52.614;13.496;2022-11-03T12:56:45;100800.44;;;16.00;51.98
26697;BME280;14312;52.614;13.496;2022-11-03T12:59:30;100795.06;;;16.00;51.92
26697;BME280;14312;52.614;13.496;2022-11-03T13:02:16;100791.31;;;16.01;51.65
26697;BME280;14312;52.614;13.496;2022-11-03T13:05:03;100782.19;;;16.02;51.62
26697;BME280;14312;52.614;13.496;2022-11-03T13:07:49;100774.38;;;16.01;52.02
26697;BME280;14312;52.614;13.496;2022-11-03T13:10:34;100773.56;;;16.00;52.01
26697;BME280;14312;52.614;13.496;2022-11-03T13:13:20;100763.63;;;16.01;52.11
26697;BME280;14312;52.614;13.496;2022-11-03T13:16:06;100762.28;;;16.03;52.21
26697;BME280;14312;52.614;13.496;2022-11-03T13:18:52;100753.16;;;16.04;52.48
26697;BME280;14312;52.614;13.496;2022-11-03T13:21:37;100752.06;;;16.05;52.46
26697;BME280;14312;52.614;13.496;2022-11-03T13:24:23;100743.44;;;16.09;52.42
26697;BME280;14312;52.614;13.496;2022-11-03T13:27:08;100743.72;;;16.12;52.36
26697;BME280;14312;52.614;13.496;2022-11-03T13:29:54;100730.28;;;16.12;52.38
26697;BME280;14312;52.614;13.496;2022-11-03T13:32:40;100736.97;;;16.15;52.34
26697;BME280;14312;52.614;13.496;2022-11-03T13:35:26;100729.44;;;16.17;52.48
26697;BME280;14312;52.614;13.496;2022-11-03T13:38:12;100724.56;;;16.24;52.24
26697;BME280;14312;52.614;13.496;2022-11-03T13:40:59;100714.31;;;16.31;52.39
26697;BME280;14312;52.614;13.496;2022-11-03T13:43:44;100707.56;;;16.38;52.47
26697;BME280;14312;52.614;13.496;2022-11-03T13:46:33;100704.03;;;16.48;52.61
26697;BME280;14312;52.614;13.496;2022-11-03T13:49:20;100700.75;;;16.61;52.24
26697;BME280;14312;52.614;13.496;2022-11-03T13:52:06;100692.59;;;16.71;51.97
26697;BME280;14312;52.614;13.496;2022-11-03T13:54:52;100682.34;;;16.78;51.85
26697;BME280;14312;52.614;13.496;2022-11-03T13:57:38;100679.31;;;16.85;51.73
26697;BME280;14312;52.614;13.496;2022-11-03T14:00:25;100666.13;;;16.89;51.61
26697;BME280;14312;52.614;13.496;2022-11-03T14:03:11;100663.97;;;16.91;51.87
26697;BME280;14312;52.614;13.496;2022-11-03T14:05:56;100660.97;;;16.92;51.95
26697;BME280;14312;52.614;13.496;2022-11-03T14:08:42;100658.00;;;16.94;51.95
26697;BME280;14312;52.614;13.496;2022-11-03T14:11:28;100659.63;;;16.95;51.82
26697;BME280;14312;52.614;13.496;2022-11-03T14:14:32;100666.34;;;16.92;51.83
26697;BME280;14312;52.614;13.496;2022-11-03T14:17:18;100661.53;;;16.89;52.11
26697;BME280;14312;52.614;13.496;2022-11-03T14:20:04;100662.91;;;16.87;51.75
26697;BME280;14312;52.614;13.496;2022-11-03T14:22:50;100659.44;;;16.81;52.27
26697;BME280;14312;52.614;13.496;2022-11-03T14:25:39;100652.22;;;16.76;52.14
26697;BME280;14312;52.614;13.496;2022-11-03T14:28:25;100655.50;;;16.68;52.30
26697;BME280;14312;52.614;13.496;2022-11-03T14:31:10;100646.66;;;16.63;52.31
26697;BME280;14312;52.614;13.496;2022-11-03T14:33:56;100645.34;;;16.55;52.39
26697;BME280;14312;52.614;13.496;2022-11-03T14:36:42;100631.94;;;16.45;52.34
26697;BME280;14312;52.614;13.496;2022-11-03T14:39:31;100628.75;;;16.38;52.74
26697;BME280;14312;52.614;13.496;2022-11-03T14:42:17;100618.88;;;16.28;52.87
26697;BME280;14312;52.614;13.496;2022-11-03T14:45:02;100611.38;;;16.20;52.62
26697;BME280;14312;52.614;13.496;2022-11-03T14:47:48;100604.72;;;16.13;52.54
26697;BME280;14312;52.614;13.496;2022-11-03T14:50:34;100604.75;;;16.02;52.97
26697;BME280;14312;52.614;13.496;2022-11-03T14:53:19;100605.88;;;15.96;52.78
26697;BME280;14312;52.614;13.496;2022-11-03T14:56:05;100586.59;;;15.84;52.93
26697;BME280;14312;52.614;13.496;2022-11-03T14:58:51;100593.59;;;15.75;53.00
26697;BME280;14312;52.614;13.496;2022-11-03T15:01:37;100589.88;;;15.66;53.15
26697;BME280;14312;52.614;13.496;2022-11-03T15:04:23;100576.75;;;15.54;53.04
26697;BME280;14312;52.614;13.496;2022-11-03T15:07:09;100577.56;;;15.45;53.31
26697;BME280;14312;52.614;13.496;2022-11-03T15:09:55;100570.63;;;15.34;53.42
26697;BME280;14312;52.614;13.496;2022-11-03T15:12:41;100565.25;;;15.23;53.48
26697;BME280;14312;52.614;13.496;2022-11-03T15:15:26;100550.25;;;15.12;53.71
26697;BME280;14312;52.614;13.496;2022-11-03T15:18:12;100557.00;;;15.05;53.67
26697;BME280;14312;52.614;13.496;2022-11-03T15:20:58;100540.88;;;14.95;53.80
26697;BME280;14312;52.614;13.496;2022-11-03T15:23:43;100535.25;;;14.86;53.85
26697;BME280;14312;52.614;13.496;2022-11-03T15:26:29;100538.47;;;14.78;54.03